createdAt,value
2024-02-26T00:00:48.383Z,3.5
2024-02-26T00:01:50.012Z,3.7
2024-02-26T00:02:51.972Z,3.4
2024-02-26T00:03:54.049Z,3.2
2024-02-26T00:04:55.980Z,2.5
2024-02-26T00:05:58.155Z,3
2024-02-26T00:07:00.665Z,3.7
2024-02-26T00:08:06.495Z,3
2024-02-26T00:09:08.469Z,3.7
2024-02-26T00:10:10.535Z,3.8
2024-02-26T00:11:12.612Z,3.2
2024-02-26T00:12:14.790Z,2.9
2024-02-26T00:13:16.721Z,2.8
2024-02-26T00:14:18.337Z,2.5
2024-02-26T00:15:20.325Z,3.7
2024-02-26T00:16:22.142Z,2.7
2024-02-26T00:17:23.718Z,2.2
2024-02-26T00:18:26.107Z,3
2024-02-26T00:19:28.613Z,2.8
2024-02-26T00:20:30.865Z,2.5
2024-02-26T00:21:32.536Z,2.7
2024-02-26T00:22:34.097Z,2.6
2024-02-26T00:23:35.633Z,2.9
2024-02-26T00:24:37.162Z,2.9
2024-02-26T00:25:38.672Z,3.3
2024-02-26T00:26:40.600Z,2.5
2024-02-26T00:27:42.840Z,3.4
2024-02-26T00:28:44.562Z,2.7
2024-02-26T00:29:46.750Z,3.1
2024-02-26T00:30:48.530Z,3.1
2024-02-26T00:31:50.052Z,2.8
2024-02-26T00:32:51.979Z,3
2024-02-26T00:33:55.480Z,2.9
2024-02-26T00:34:58.032Z,2.6
2024-02-26T00:36:00.123Z,3.3
2024-02-26T00:37:02.151Z,2.8
2024-02-26T00:38:03.738Z,2.1
2024-02-26T00:39:05.842Z,2.5
2024-02-26T00:40:07.873Z,2.9
2024-02-26T00:41:09.845Z,2.5
2024-02-26T00:42:11.670Z,2.4
2024-02-26T00:43:13.847Z,2.4
2024-02-26T00:44:15.503Z,2.3
2024-02-26T00:45:17.563Z,2.6
2024-02-26T00:46:19.886Z,2.2
2024-02-26T00:47:21.421Z,2.2
2024-02-26T00:48:24.125Z,2.2
2024-02-26T00:49:26.322Z,1.9
2024-02-26T00:50:28.193Z,2.4
2024-02-26T00:51:30.317Z,2.1
2024-02-26T00:52:32.359Z,1.5
2024-02-26T00:53:34.133Z,1.9
2024-02-26T00:54:35.744Z,2.1
2024-02-26T00:55:37.300Z,2
2024-02-26T00:56:39.025Z,2.3
2024-02-26T00:57:40.976Z,1.8
2024-02-26T00:58:42.608Z,1.8
2024-02-26T00:59:44.668Z,1.9
2024-02-26T01:00:46.565Z,2
2024-02-26T01:01:48.693Z,1.9
2024-02-26T01:02:50.984Z,2.3
2024-02-26T01:03:53.766Z,1.8
2024-02-26T01:04:56.327Z,1.9
2024-02-26T01:06:01.245Z,2
2024-02-26T01:07:04.526Z,2.8
2024-02-26T01:08:07.712Z,2.2
2024-02-26T01:09:10.317Z,2.2
2024-02-26T01:10:12.289Z,2.2
2024-02-26T01:11:14.163Z,1.6
2024-02-26T01:12:16.542Z,1.4
2024-02-26T01:13:18.504Z,2.3
2024-02-26T01:14:20.075Z,2
2024-02-26T01:15:21.931Z,2
2024-02-26T01:16:23.833Z,1.9
2024-02-26T01:17:25.651Z,1.9
2024-02-26T01:18:28.498Z,2.4
2024-02-26T01:19:31.108Z,2.6
2024-02-26T01:20:33.079Z,2.2
2024-02-26T01:21:34.666Z,2
2024-02-26T01:22:36.306Z,1.7
2024-02-26T01:23:38.612Z,1.8
2024-02-26T01:24:40.567Z,2.4
2024-02-26T01:25:42.061Z,2.1
2024-02-26T01:26:44.261Z,1.7
2024-02-26T01:27:45.937Z,2.4
2024-02-26T01:28:47.441Z,1.7
2024-02-26T01:29:49.370Z,1.7
2024-02-26T01:30:51.158Z,1.9
2024-02-26T01:31:52.786Z,2.3
2024-02-26T01:32:55.331Z,2.2
2024-02-26T01:33:58.414Z,2.5
2024-02-26T01:35:00.504Z,2.5
2024-02-26T01:36:02.548Z,2.2
2024-02-26T01:37:04.568Z,1.9
2024-02-26T01:38:06.108Z,1.9
2024-02-26T01:39:08.132Z,2.1
2024-02-26T01:40:10.219Z,1.6
2024-02-26T01:41:11.839Z,2.2
2024-02-26T01:42:13.801Z,1.6
2024-02-26T01:43:15.732Z,1.8
2024-02-26T01:44:17.296Z,1.9
2024-02-26T01:45:19.314Z,1.7
2024-02-26T01:46:21.929Z,2.2
2024-02-26T01:47:23.531Z,2.2
2024-02-26T01:48:25.695Z,1.7
2024-02-26T01:49:28.334Z,1.6
2024-02-26T01:50:30.332Z,2.6
2024-02-26T01:51:31.846Z,2.1
2024-02-26T01:52:33.479Z,1.7
2024-02-26T01:53:35.035Z,1.8
2024-02-26T01:54:36.681Z,2.2
2024-02-26T01:55:38.397Z,1.9
2024-02-26T01:56:40.063Z,1.4
2024-02-26T01:57:41.853Z,2.1
2024-02-26T01:58:43.647Z,1.9
2024-02-26T01:59:45.495Z,1.8
2024-02-26T02:00:48.630Z,2.4
2024-02-26T02:01:50.513Z,1.4
2024-02-26T02:02:52.569Z,1.9
2024-02-26T02:03:54.713Z,2.4
2024-02-26T02:04:56.618Z,2.1
2024-02-26T02:05:58.970Z,2
2024-02-26T02:07:01.790Z,2.5
2024-02-26T02:08:03.977Z,2.7
2024-02-26T02:09:05.693Z,2.2
2024-02-26T02:10:07.507Z,2.2
2024-02-26T02:11:09.538Z,2.4
2024-02-26T02:12:11.797Z,1.9
2024-02-26T02:13:13.595Z,2.2
2024-02-26T02:14:15.089Z,2.5
2024-02-26T02:15:17.031Z,3
2024-02-26T02:16:18.957Z,1.7
2024-02-26T02:17:20.534Z,2.9
2024-02-26T02:18:22.678Z,1.9
2024-02-26T02:19:25.124Z,1.6
2024-02-26T02:20:26.763Z,2.1
2024-02-26T02:21:28.649Z,1.7
2024-02-26T02:22:30.533Z,2.1
2024-02-26T02:23:32.031Z,2.2
2024-02-26T02:24:33.875Z,1.4
2024-02-26T02:25:35.457Z,2.7
2024-02-26T02:26:36.943Z,2.1
2024-02-26T02:27:38.839Z,2.1
2024-02-26T02:28:40.438Z,2.9
2024-02-26T02:29:42.322Z,1.6
2024-02-26T02:30:43.978Z,4.6
2024-02-26T02:31:45.696Z,1.9
2024-02-26T02:32:47.877Z,3.1
2024-02-26T02:33:50.943Z,1.8
2024-02-26T02:34:53.677Z,2.2
2024-02-26T02:35:55.994Z,1.9
2024-02-26T02:36:58.229Z,2.5
2024-02-26T02:37:59.918Z,2.9
2024-02-26T02:39:02.093Z,2.2
2024-02-26T02:40:03.988Z,2.4
2024-02-26T02:41:05.789Z,1.8
2024-02-26T02:42:07.683Z,1.8
2024-02-26T02:43:09.529Z,2.5
2024-02-26T02:44:11.062Z,2.5
2024-02-26T02:45:13.084Z,1.9
2024-02-26T02:46:15.145Z,3.2
2024-02-26T02:47:16.880Z,2.5
2024-02-26T02:48:19.338Z,3.2
2024-02-26T02:49:21.837Z,2.7
2024-02-26T02:50:23.951Z,2.6
2024-02-26T02:51:25.969Z,1.5
2024-02-26T02:52:27.711Z,2.5
2024-02-26T02:53:29.257Z,2.5
2024-02-26T02:54:31.466Z,1.9
2024-02-26T02:55:33.274Z,1.6
2024-02-26T02:56:34.847Z,3.1
2024-02-26T02:57:36.544Z,1.8
2024-02-26T02:58:38.157Z,2.7
2024-02-26T02:59:40.479Z,2.4
2024-02-26T03:00:43.093Z,1.9
2024-02-26T03:01:45.036Z,2.6
2024-02-26T03:02:47.049Z,2
2024-02-26T03:03:49.315Z,1.8
2024-02-26T03:04:51.267Z,2.1
2024-02-26T03:05:53.628Z,2
2024-02-26T03:06:56.009Z,2.9
2024-02-26T03:07:57.871Z,1.9
2024-02-26T03:08:59.526Z,1.8
2024-02-26T03:10:01.330Z,1.7
2024-02-26T03:11:03.353Z,1.5
2024-02-26T03:12:05.557Z,2.5
2024-02-26T03:13:07.489Z,2.1
2024-02-26T03:14:09.069Z,2.3
2024-02-26T03:15:11.009Z,2.2
2024-02-26T03:16:13.260Z,2.1
2024-02-26T03:17:15.196Z,3
2024-02-26T03:18:17.434Z,2.2
2024-02-26T03:19:20.385Z,1.5
2024-02-26T03:20:22.393Z,2.2
2024-02-26T03:21:24.460Z,2.4
2024-02-26T03:22:26.282Z,2.1
2024-02-26T03:23:27.815Z,1.9
2024-02-26T03:24:29.735Z,2.4
2024-02-26T03:25:31.615Z,2.2
2024-02-26T03:26:33.122Z,2
2024-02-26T03:27:34.716Z,1.7
2024-02-26T03:28:36.267Z,2.7
2024-02-26T03:29:37.770Z,2.5
2024-02-26T03:30:39.298Z,1.9
2024-02-26T03:31:40.824Z,1.6
2024-02-26T03:32:43.111Z,1.8
2024-02-26T03:33:46.209Z,2.3
2024-02-26T03:34:49.204Z,2
2024-02-26T03:35:51.581Z,1.7
2024-02-26T03:36:53.320Z,2.3
2024-02-26T03:37:54.822Z,1.7
2024-02-26T03:38:56.530Z,2.4
2024-02-26T03:39:58.647Z,3.1
2024-02-26T03:41:00.814Z,2.3
2024-02-26T03:42:02.682Z,1.8
2024-02-26T03:43:04.482Z,1.8
2024-02-26T03:44:06.145Z,2.3
2024-02-26T03:45:08.261Z,3
2024-02-26T03:46:10.105Z,2.3
2024-02-26T03:47:11.866Z,2.4
2024-02-26T03:48:14.353Z,2
2024-02-26T03:49:16.887Z,2.2
2024-02-26T03:50:19.021Z,1.8
2024-02-26T03:51:21.030Z,2.2
2024-02-26T03:52:22.863Z,2.3
2024-02-26T03:53:24.426Z,2.8
2024-02-26T03:54:26.412Z,1.3
2024-02-26T03:55:28.330Z,2.1
2024-02-26T03:56:29.861Z,2.6
2024-02-26T03:57:31.423Z,2.1
2024-02-26T03:58:33.192Z,1.8
2024-02-26T03:59:34.687Z,1.9
2024-02-26T04:00:37.010Z,1.7
2024-02-26T04:01:39.154Z,2.5
2024-02-26T04:02:41.213Z,1.9
2024-02-26T04:03:43.352Z,2.4
2024-02-26T04:04:45.684Z,2.1
2024-02-26T04:05:48.315Z,2.3
2024-02-26T04:06:50.928Z,2.9
2024-02-26T04:07:52.856Z,2.9
2024-02-26T04:08:54.754Z,2.1
2024-02-26T04:09:56.294Z,2.5
2024-02-26T04:10:58.196Z,2.1
2024-02-26T04:12:00.326Z,2.8
2024-02-26T04:13:02.089Z,2.6
2024-02-26T04:14:03.757Z,3.7
2024-02-26T04:15:05.855Z,1.5
2024-02-26T04:16:07.878Z,2.3
2024-02-26T04:17:09.401Z,2.1
2024-02-26T04:18:12.391Z,2.7
2024-02-26T04:19:15.329Z,2.6
2024-02-26T04:20:17.760Z,2
2024-02-26T04:21:20.021Z,3.7
2024-02-26T04:22:22.113Z,2
2024-02-26T04:23:24.362Z,2.2
2024-02-26T04:24:26.309Z,3.7
2024-02-26T04:25:28.307Z,2.6
2024-02-26T04:26:29.870Z,2.3
2024-02-26T04:27:31.396Z,1.8
2024-02-26T04:28:33.066Z,2.3
2024-02-26T04:29:34.844Z,2.2
2024-02-26T04:30:36.686Z,2.8
2024-02-26T04:31:38.743Z,2.9
2024-02-26T04:32:40.641Z,2.3
2024-02-26T04:33:43.298Z,2.6
2024-02-26T04:34:45.937Z,3
2024-02-26T04:35:48.097Z,3.3
2024-02-26T04:36:50.033Z,2.5
2024-02-26T04:37:51.810Z,2.7
2024-02-26T04:38:53.654Z,2.9
2024-02-26T04:39:55.555Z,2.4
2024-02-26T04:40:57.075Z,2.6
2024-02-26T04:41:58.884Z,1.8
2024-02-26T04:43:00.611Z,1.9
2024-02-26T04:44:02.242Z,2.7
2024-02-26T04:45:04.310Z,2.1
2024-02-26T04:46:06.155Z,2.8
2024-02-26T04:47:07.795Z,2.3
2024-02-26T04:48:10.430Z,2.7
2024-02-26T04:49:13.708Z,1.9
2024-02-26T04:50:15.712Z,2.3
2024-02-26T04:51:17.815Z,1.6
2024-02-26T04:52:20.065Z,3.8
2024-02-26T04:53:27.548Z,2.4
2024-02-26T04:54:29.617Z,3.1
2024-02-26T04:55:31.506Z,3.4
2024-02-26T04:56:33.172Z,2.4
2024-02-26T04:57:35.623Z,3.3
2024-02-26T04:58:37.133Z,4
2024-02-26T04:59:38.713Z,3.5
2024-02-26T05:00:40.770Z,2.1
2024-02-26T05:01:43.321Z,2.5
2024-02-26T05:02:46.163Z,3.4
2024-02-26T05:03:48.819Z,2.6
2024-02-26T05:04:50.750Z,3.1
2024-02-26T05:05:52.842Z,3.1
2024-02-26T05:06:56.314Z,2.8
2024-02-26T05:07:58.538Z,2.3
2024-02-26T05:09:00.553Z,3.5
2024-02-26T05:10:02.435Z,2.6
2024-02-26T05:11:04.320Z,2.2
2024-02-26T05:12:06.724Z,2.4
2024-02-26T05:13:08.802Z,2.3
2024-02-26T05:14:10.367Z,2.3
2024-02-26T05:15:12.471Z,3.3
2024-02-26T05:16:14.384Z,2.4
2024-02-26T05:17:15.932Z,2.8
2024-02-26T05:18:18.450Z,2.5
2024-02-26T05:19:21.415Z,2.2
2024-02-26T05:20:23.382Z,2.4
2024-02-26T05:21:25.517Z,3.3
2024-02-26T05:22:27.553Z,2.8
2024-02-26T05:23:29.136Z,2.9
2024-02-26T05:24:31.024Z,3.4
2024-02-26T05:25:33.092Z,3.3
2024-02-26T05:26:34.612Z,3.9
2024-02-26T05:27:36.128Z,3.5
2024-02-26T05:28:37.947Z,2.7
2024-02-26T05:29:39.749Z,2.2
2024-02-26T05:30:41.761Z,3.2
2024-02-26T05:31:43.641Z,2.7
2024-02-26T05:32:46.060Z,2.8
2024-02-26T05:33:49.097Z,2.7
2024-02-26T05:34:51.146Z,2.4
2024-02-26T05:35:53.323Z,2.6
2024-02-26T05:36:55.402Z,3.2
2024-02-26T05:37:57.092Z,3.9
2024-02-26T05:38:58.983Z,3.4
2024-02-26T05:40:00.933Z,3.8
2024-02-26T05:41:02.510Z,2.6
2024-02-26T05:42:04.230Z,3.5
2024-02-26T05:43:06.021Z,3.6
2024-02-26T05:44:07.646Z,4.4
2024-02-26T05:45:09.504Z,4.3
2024-02-26T05:46:11.460Z,6.2
2024-02-26T05:47:13.218Z,4.4
2024-02-26T05:48:15.553Z,5.8
2024-02-26T05:49:18.403Z,5
2024-02-26T05:50:20.422Z,5.9
2024-02-26T05:51:22.645Z,4.8
2024-02-26T05:52:27.597Z,4.6
2024-02-26T05:53:29.126Z,4
2024-02-26T05:54:31.246Z,3.8
2024-02-26T05:55:33.200Z,2.6
2024-02-26T05:56:34.922Z,3.1
2024-02-26T05:57:37.491Z,3.8
2024-02-26T05:58:39.408Z,2.8
2024-02-26T05:59:40.931Z,2.6
2024-02-26T06:00:43.569Z,2.3
2024-02-26T06:01:45.892Z,2.9
2024-02-26T06:02:47.878Z,2.8
2024-02-26T06:03:50.020Z,2.7
2024-02-26T06:04:52.150Z,2.7
2024-02-26T06:05:54.384Z,2.6
2024-02-26T06:06:56.903Z,2.7
2024-02-26T06:07:58.656Z,3.1
2024-02-26T06:09:00.927Z,3.3
2024-02-26T06:10:02.836Z,1.7
2024-02-26T06:11:04.728Z,2.8
2024-02-26T06:12:06.931Z,2.3
2024-02-26T06:13:08.757Z,3
2024-02-26T06:14:10.376Z,2.3
2024-02-26T06:15:12.661Z,2.9
2024-02-26T06:16:14.740Z,2.8
2024-02-26T06:17:16.260Z,3.2
2024-02-26T06:18:18.779Z,3.8
2024-02-26T06:19:21.224Z,3.5
2024-02-26T06:20:23.381Z,2.9
2024-02-26T06:21:25.651Z,3.1
2024-02-26T06:22:27.566Z,2.6
2024-02-26T06:23:29.059Z,3.7
2024-02-26T06:24:31.008Z,3.5
2024-02-26T06:25:32.996Z,3.6
2024-02-26T06:26:34.917Z,4.2
2024-02-26T06:27:36.516Z,4
2024-02-26T06:28:38.020Z,3.8
2024-02-26T06:29:39.527Z,3.8
2024-02-26T06:30:41.511Z,4
2024-02-26T06:31:43.609Z,3.7
2024-02-26T06:32:46.168Z,3.9
2024-02-26T06:33:49.268Z,4.2
2024-02-26T06:34:52.116Z,2.6
2024-02-26T06:35:54.321Z,3.6
2024-02-26T06:36:56.267Z,4.2
2024-02-26T06:37:57.792Z,3.3
2024-02-26T06:38:59.684Z,4
2024-02-26T06:40:01.827Z,4.2
2024-02-26T06:41:03.637Z,4
2024-02-26T06:42:05.463Z,4.2
2024-02-26T06:43:07.645Z,5
2024-02-26T06:44:09.276Z,3.8
2024-02-26T06:45:11.188Z,4.1
2024-02-26T06:46:13.098Z,4.6
2024-02-26T06:47:14.586Z,3.7
2024-02-26T06:48:16.700Z,4
2024-02-26T06:49:19.619Z,5.4
2024-02-26T06:50:21.713Z,5.7
2024-02-26T06:51:24.125Z,5.3
2024-02-26T06:52:26.293Z,4.2
2024-02-26T06:53:27.993Z,5.3
2024-02-26T06:54:30.100Z,4.9
2024-02-26T06:55:32.074Z,5.2
2024-02-26T06:56:33.758Z,6.2
2024-02-26T06:57:35.402Z,4.8
2024-02-26T06:58:37.531Z,7.2
2024-02-26T06:59:39.729Z,5.4
2024-02-26T07:00:43.064Z,5.9
2024-02-26T07:01:45.053Z,5.5
2024-02-26T07:02:47.171Z,5.8
2024-02-26T07:03:50.223Z,6.4
2024-02-26T07:04:52.364Z,5
2024-02-26T07:05:54.579Z,4.9
2024-02-26T07:06:57.171Z,4.1
2024-02-26T07:07:59.171Z,5.6
2024-02-26T07:09:01.147Z,5.5
2024-02-26T07:10:03.061Z,5
2024-02-26T07:11:04.914Z,5.4
2024-02-26T07:12:07.040Z,5.3
2024-02-26T07:13:08.722Z,4.9
2024-02-26T07:14:10.198Z,5.6
2024-02-26T07:15:12.340Z,4.2
2024-02-26T07:16:14.265Z,5.4
2024-02-26T07:17:15.765Z,5.9
2024-02-26T07:18:18.297Z,5.3
2024-02-26T07:19:21.283Z,4.7
2024-02-26T07:20:23.350Z,5.7
2024-02-26T07:21:25.540Z,5.2
2024-02-26T07:22:27.445Z,5.8
2024-02-26T07:23:28.968Z,6.2
2024-02-26T07:24:30.870Z,5.3
2024-02-26T07:25:32.715Z,5.9
2024-02-26T07:26:34.353Z,5.6
2024-02-26T07:27:36.204Z,5.8
2024-02-26T07:28:37.805Z,6.2
2024-02-26T07:29:39.479Z,5.6
2024-02-26T07:30:40.997Z,6.1
2024-02-26T07:31:43.082Z,6.3
2024-02-26T07:32:52.080Z,7
2024-02-26T07:33:54.579Z,7.8
2024-02-26T07:34:57.196Z,8.2
2024-02-26T07:35:59.337Z,5.6
2024-02-26T07:37:01.154Z,5.6
2024-02-26T07:38:02.892Z,5
2024-02-26T07:39:04.988Z,6.6
2024-02-26T07:40:06.777Z,6
2024-02-26T07:41:08.371Z,4.6
2024-02-26T07:42:10.614Z,5.6
2024-02-26T07:43:12.874Z,5.4
2024-02-26T07:44:14.469Z,6.2
2024-02-26T07:45:16.359Z,6.9
2024-02-26T07:46:18.557Z,6.1
2024-02-26T07:47:20.112Z,5
2024-02-26T07:48:22.324Z,5.1
2024-02-26T07:49:25.151Z,5
2024-02-26T07:50:27.135Z,4.8
2024-02-26T07:51:29.275Z,5.5
2024-02-26T07:52:31.189Z,5.5
2024-02-26T07:53:32.681Z,5.3
2024-02-26T07:54:34.692Z,6.7
2024-02-26T07:55:36.816Z,6.9
2024-02-26T07:56:38.299Z,7.2
2024-02-26T07:57:39.775Z,5.5
2024-02-26T07:58:41.508Z,6.9
2024-02-26T07:59:43.679Z,7.2
2024-02-26T08:00:45.610Z,7
2024-02-26T08:01:59.581Z,6.8
2024-02-26T08:03:02.163Z,7.8
2024-02-26T08:04:05.689Z,7.4
2024-02-26T08:05:07.930Z,7.1
2024-02-26T08:06:10.032Z,7.4
2024-02-26T08:07:12.785Z,6.2
2024-02-26T08:08:14.786Z,5.3
2024-02-26T08:09:17.094Z,6.7
2024-02-26T08:10:19.016Z,7.3
2024-02-26T08:11:21.010Z,9.4
2024-02-26T08:12:23.263Z,7.5
2024-02-26T08:13:25.046Z,7.6
2024-02-26T08:14:27.426Z,7.6
2024-02-26T08:15:29.482Z,7.9
2024-02-26T08:16:37.698Z,9
2024-02-26T08:17:39.670Z,5.6
2024-02-26T08:18:42.509Z,7.4
2024-02-26T08:19:45.137Z,7.7
2024-02-26T08:20:47.125Z,8.5
2024-02-26T08:21:48.995Z,7.8
2024-02-26T08:22:50.537Z,7.6
2024-02-26T08:23:52.423Z,9
2024-02-26T08:24:54.101Z,6.5
2024-02-26T08:25:55.651Z,9.9
2024-02-26T08:26:57.444Z,6.6
2024-02-26T08:27:59.273Z,7.8
2024-02-26T08:29:01.018Z,7.8
2024-02-26T08:30:03.368Z,7.1
2024-02-26T08:31:05.475Z,8.2
2024-02-26T08:32:07.217Z,5.6
2024-02-26T08:33:09.690Z,7.1
2024-02-26T08:34:12.658Z,7.6
2024-02-26T08:35:15.304Z,7.3
2024-02-26T08:36:17.596Z,7.9
2024-02-26T08:37:19.616Z,7.6
2024-02-26T08:38:21.315Z,7.2
2024-02-26T08:39:23.035Z,6.8
2024-02-26T08:40:25.099Z,7.2
2024-02-26T08:41:26.635Z,6.5
2024-02-26T08:42:28.403Z,7.6
2024-02-26T08:43:30.399Z,7
2024-02-26T08:44:32.127Z,5.9
2024-02-26T08:45:34.678Z,7.2
2024-02-26T08:46:36.837Z,7.1
2024-02-26T08:47:38.975Z,6.6
2024-02-26T08:48:42.088Z,6.8
2024-02-26T08:49:45.400Z,7.2
2024-02-26T08:50:47.453Z,6.4
2024-02-26T08:51:49.233Z,8.3
2024-02-26T08:52:50.709Z,7.3
2024-02-26T08:53:52.646Z,7
2024-02-26T08:54:54.387Z,8.5
2024-02-26T08:55:55.874Z,7.1
2024-02-26T08:56:58.643Z,6.4
2024-02-26T08:58:00.913Z,6.4
2024-02-26T08:59:02.443Z,8
2024-02-26T09:00:04.428Z,6.8
2024-02-26T09:01:06.888Z,8.3
2024-02-26T09:02:09.339Z,7.9
2024-02-26T09:03:11.248Z,7.2
2024-02-26T09:04:13.543Z,5.9
2024-02-26T09:05:15.417Z,7.9
2024-02-26T09:06:17.808Z,6.1
2024-02-26T09:07:20.259Z,7.2
2024-02-26T09:08:21.989Z,8
2024-02-26T09:09:24.022Z,8.5
2024-02-26T09:10:25.677Z,9.4
2024-02-26T09:11:27.546Z,7.3
2024-02-26T09:12:29.856Z,7.1
2024-02-26T09:13:31.860Z,7.6
2024-02-26T09:14:33.507Z,7.1
2024-02-26T09:15:35.877Z,7.5
2024-02-26T09:16:37.708Z,9
2024-02-26T09:17:39.794Z,7.2
2024-02-26T09:18:42.498Z,8.5
2024-02-26T09:19:45.357Z,8.8
2024-02-26T09:20:47.676Z,8.3
2024-02-26T09:21:49.483Z,8
2024-02-26T09:22:50.991Z,9
2024-02-26T09:23:52.940Z,8.2
2024-02-26T09:24:55.181Z,8.4
2024-02-26T09:25:56.694Z,7.6
2024-02-26T09:26:58.607Z,7.3
2024-02-26T09:28:00.191Z,8.2
2024-02-26T09:29:02.030Z,6.8
2024-02-26T09:30:04.839Z,7.1
2024-02-26T09:31:06.845Z,9
2024-02-26T09:32:08.850Z,7.3
2024-02-26T09:33:11.239Z,9.2
2024-02-26T09:34:13.768Z,8.9
2024-02-26T09:35:16.770Z,6.9
2024-02-26T09:36:19.423Z,7.8
2024-02-26T09:37:23.498Z,7.9
2024-02-26T09:38:25.095Z,7.9
2024-02-26T09:39:26.820Z,7.2
2024-02-26T09:40:29.038Z,7.9
2024-02-26T09:41:30.704Z,9.3
2024-02-26T09:42:32.603Z,7.8
2024-02-26T09:43:34.477Z,7.1
2024-02-26T09:44:35.968Z,7.2
2024-02-26T09:45:37.922Z,7.7
2024-02-26T09:46:40.013Z,7.2
2024-02-26T09:47:42.483Z,5.8
2024-02-26T09:48:45.359Z,7.8
2024-02-26T09:49:48.000Z,6.9
2024-02-26T09:50:50.378Z,8.1
2024-02-26T09:51:52.222Z,7.9
2024-02-26T09:52:53.786Z,7.5
2024-02-26T09:53:56.014Z,6.9
2024-02-26T09:54:57.784Z,8.3
2024-02-26T09:55:59.604Z,6.7
2024-02-26T09:57:06.190Z,7.6
2024-02-26T09:58:09.351Z,7.6
2024-02-26T09:59:11.348Z,8.6
2024-02-26T10:00:13.348Z,6.8
2024-02-26T10:01:16.032Z,11
2024-02-26T10:02:18.003Z,9.5
2024-02-26T10:03:20.126Z,7.6
2024-02-26T10:04:22.604Z,8.6
2024-02-26T10:05:24.663Z,7.6
2024-02-26T10:06:26.975Z,8.4
2024-02-26T10:07:29.126Z,6.6
2024-02-26T10:08:30.949Z,6.3
2024-02-26T10:09:33.058Z,7.3
2024-02-26T10:10:35.017Z,7.3
2024-02-26T10:11:38.493Z,7.2
2024-02-26T10:12:40.850Z,9
2024-02-26T10:13:42.516Z,8.6
2024-02-26T10:14:44.871Z,7.6
2024-02-26T10:15:46.921Z,7.4
2024-02-26T10:16:48.736Z,6.7
2024-02-26T10:17:51.291Z,8.5
2024-02-26T10:19:01.698Z,8
2024-02-26T10:20:05.297Z,8.6
2024-02-26T10:21:07.577Z,8.1
2024-02-26T10:22:09.381Z,7.5
2024-02-26T10:23:10.998Z,7.9
2024-02-26T10:24:12.948Z,8.6
2024-02-26T10:25:14.643Z,8.7
2024-02-26T10:26:16.323Z,8.6
2024-02-26T10:27:18.743Z,8.3
2024-02-26T10:28:20.779Z,7.3
2024-02-26T10:29:22.405Z,8.2
2024-02-26T10:30:25.314Z,7.7
2024-02-26T10:31:27.407Z,7.8
2024-02-26T10:32:28.928Z,7.3
2024-02-26T10:33:43.060Z,7.7
2024-02-26T10:34:46.556Z,7.1
2024-02-26T10:35:49.690Z,9.5
2024-02-26T10:36:56.281Z,7.9
2024-02-26T10:37:58.768Z,8
2024-02-26T10:39:00.600Z,7.9
2024-02-26T10:40:02.395Z,7.7
2024-02-26T10:41:03.969Z,7.1
2024-02-26T10:42:05.674Z,9.1
2024-02-26T10:43:07.728Z,8.5
2024-02-26T10:44:09.496Z,7.6
2024-02-26T10:45:11.549Z,8.2
2024-02-26T10:46:14.287Z,10.2
2024-02-26T10:47:15.950Z,7.7
2024-02-26T10:48:18.383Z,8.6
2024-02-26T10:49:23.791Z,9.3
2024-02-26T10:50:25.778Z,9.5
2024-02-26T10:51:28.142Z,9.7
2024-02-26T10:52:30.309Z,8.2
2024-02-26T10:53:32.234Z,10.3
2024-02-26T10:54:34.870Z,8
2024-02-26T10:55:37.154Z,9.4
2024-02-26T10:56:39.211Z,10.4
2024-02-26T10:57:42.368Z,9.7
2024-02-26T10:58:44.963Z,12.3
2024-02-26T10:59:47.051Z,10.1
2024-02-26T11:00:50.067Z,10
2024-02-26T11:01:53.222Z,9.3
2024-02-26T11:02:55.535Z,9
2024-02-26T11:03:57.648Z,8.9
2024-02-26T11:05:02.929Z,10.1
2024-02-26T11:06:05.395Z,9
2024-02-26T11:07:12.749Z,8.7
2024-02-26T11:08:14.589Z,10.4
2024-02-26T11:09:16.867Z,9.7
2024-02-26T11:10:18.995Z,10.3
2024-02-26T11:11:20.884Z,11.1
2024-02-26T11:12:23.051Z,9.3
2024-02-26T11:13:24.939Z,10.4
2024-02-26T11:14:26.756Z,10.9
2024-02-26T11:15:29.443Z,9.6
2024-02-26T11:16:31.466Z,8.3
2024-02-26T11:17:33.572Z,9.3
2024-02-26T11:18:36.049Z,8.7
2024-02-26T11:19:39.929Z,10
2024-02-26T11:20:42.268Z,8.6
2024-02-26T11:21:44.256Z,9.1
2024-02-26T11:22:46.582Z,10.3
2024-02-26T11:23:48.516Z,11.1
2024-02-26T11:24:50.104Z,10.2
2024-02-26T11:25:51.788Z,9.5
2024-02-26T11:26:53.687Z,10
2024-02-26T11:27:58.186Z,11.1
2024-02-26T11:28:59.766Z,10.9
2024-02-26T11:30:02.644Z,9.4
2024-02-26T11:31:04.718Z,9.8
2024-02-26T11:32:06.246Z,10
2024-02-26T11:33:08.567Z,7.9
2024-02-26T11:34:11.842Z,10.6
2024-02-26T11:35:14.815Z,8.8
2024-02-26T11:36:17.200Z,9.5
2024-02-26T11:37:20.276Z,10
2024-02-26T11:38:22.095Z,11.5
2024-02-26T11:39:24.147Z,10.7
2024-02-26T11:40:25.928Z,9.4
2024-02-26T11:41:27.590Z,8.7
2024-02-26T11:42:29.660Z,9.4
2024-02-26T11:43:31.726Z,10.9
2024-02-26T11:44:33.245Z,9.6
2024-02-26T11:45:35.382Z,8.9
2024-02-26T11:46:37.139Z,9.9
2024-02-26T11:47:39.427Z,10
2024-02-26T11:48:41.923Z,11.4
2024-02-26T11:49:44.830Z,10.9
2024-02-26T11:50:47.073Z,9.6
2024-02-26T11:51:49.169Z,11.1
2024-02-26T11:52:51.056Z,10.1
2024-02-26T11:53:53.262Z,9.9
2024-02-26T11:54:55.632Z,10
2024-02-26T11:55:57.223Z,10.3
2024-02-26T11:56:59.023Z,11.3
2024-02-26T11:58:00.853Z,10.1
2024-02-26T11:59:02.862Z,9.9
2024-02-26T12:00:05.948Z,9.7
2024-02-26T12:01:08.343Z,12.4
2024-02-26T12:02:10.095Z,10.9
2024-02-26T12:03:11.741Z,10.5
2024-02-26T12:04:13.874Z,9.2
2024-02-26T12:05:16.054Z,10.6
2024-02-26T12:06:18.490Z,11.2
2024-02-26T12:07:20.953Z,9.1
2024-02-26T12:08:23.127Z,11.2
2024-02-26T12:09:25.512Z,9.7
2024-02-26T12:10:27.773Z,10.6
2024-02-26T12:11:29.688Z,9.8
2024-02-26T12:12:32.002Z,10.4
2024-02-26T12:13:33.836Z,9.6
2024-02-26T12:14:35.900Z,11.3
2024-02-26T12:15:38.218Z,11
2024-02-26T12:16:40.376Z,10.9
2024-02-26T12:17:42.347Z,10.8
2024-02-26T12:18:44.828Z,13.1
2024-02-26T12:19:47.186Z,11.5
2024-02-26T12:20:49.433Z,11.5
2024-02-26T12:21:51.133Z,9.9
2024-02-26T12:22:53.191Z,8.9
2024-02-26T12:23:55.490Z,8.9
2024-02-26T12:24:57.630Z,8.9
2024-02-26T12:25:59.163Z,9.4
2024-02-26T12:27:01.151Z,8.1
2024-02-26T12:28:03.084Z,10.4
2024-02-26T12:29:04.592Z,10.4
2024-02-26T12:30:06.373Z,10.8
2024-02-26T12:31:08.518Z,10.4
2024-02-26T12:32:10.386Z,10.1
2024-02-26T12:33:12.479Z,8.2
2024-02-26T12:34:15.243Z,9.3
2024-02-26T12:35:17.789Z,7.9
2024-02-26T12:36:20.037Z,8.7
2024-02-26T12:37:21.937Z,10.2
2024-02-26T12:38:24.178Z,9.8
2024-02-26T12:39:29.817Z,9.1
2024-02-26T12:40:32.066Z,10
2024-02-26T12:41:33.687Z,8.5
2024-02-26T12:42:35.647Z,8.5
2024-02-26T12:43:37.437Z,8.6
2024-02-26T12:44:39.011Z,9.7
2024-02-26T12:45:40.866Z,9.5
2024-02-26T12:46:43.240Z,10.7
2024-02-26T12:47:45.547Z,9.2
2024-02-26T12:48:48.348Z,9.5
2024-02-26T12:49:51.437Z,10.7
2024-02-26T12:50:54.041Z,10.4
2024-02-26T12:51:55.711Z,9.1
2024-02-26T12:52:57.290Z,9.2
2024-02-26T12:53:59.367Z,9.5
2024-02-26T12:55:01.512Z,9.1
2024-02-26T12:56:08.495Z,8.7
2024-02-26T12:57:10.872Z,9.1
2024-02-26T12:58:12.866Z,11.1
2024-02-26T12:59:14.640Z,10.3
2024-02-26T13:00:16.874Z,10.4
2024-02-26T13:01:19.094Z,8.9
2024-02-26T13:02:20.944Z,9.8
2024-02-26T13:03:23.784Z,8.6
2024-02-26T13:04:26.191Z,8.8
2024-02-26T13:05:28.433Z,10.4
2024-02-26T13:06:30.961Z,9.9
2024-02-26T13:07:32.921Z,11.1
2024-02-26T13:08:34.395Z,10.1
2024-02-26T13:09:36.469Z,9.5
2024-02-26T13:10:38.755Z,8.5
2024-02-26T13:11:40.846Z,10.6
2024-02-26T13:12:42.476Z,10
2024-02-26T13:13:44.052Z,9.4
2024-02-26T13:14:45.704Z,10.4
2024-02-26T13:15:47.511Z,10.4
2024-02-26T13:16:49.127Z,10.5
2024-02-26T13:17:51.602Z,7.9
2024-02-26T13:18:54.975Z,7.6
2024-02-26T13:19:57.830Z,10.1
2024-02-26T13:20:59.983Z,10.2
2024-02-26T13:22:01.759Z,10.3
2024-02-26T13:23:03.401Z,9.1
2024-02-26T13:24:05.402Z,9
2024-02-26T13:25:07.520Z,8.9
2024-02-26T13:26:09.716Z,9.5
2024-02-26T13:27:11.799Z,9.9
2024-02-26T13:28:14.020Z,13.1
2024-02-26T13:29:15.699Z,9.5
2024-02-26T13:30:17.949Z,10.3
2024-02-26T13:31:19.891Z,10.9
2024-02-26T13:32:21.378Z,10.4
2024-02-26T13:33:23.827Z,9.9
2024-02-26T13:34:26.693Z,10
2024-02-26T13:35:28.728Z,9.3
2024-02-26T13:36:30.685Z,10.2
2024-02-26T13:37:32.822Z,10.4
2024-02-26T13:38:34.392Z,8.9
2024-02-26T13:39:43.043Z,7.9
2024-02-26T13:40:45.113Z,10.1
2024-02-26T13:41:47.312Z,9.9
2024-02-26T13:42:49.719Z,9.1
2024-02-26T13:43:51.633Z,9.5
2024-02-26T13:44:53.505Z,7.8
2024-02-26T13:45:55.733Z,10.5
2024-02-26T13:46:57.553Z,9.7
2024-02-26T13:47:59.522Z,8.9
2024-02-26T13:49:02.140Z,11.5
2024-02-26T13:50:05.038Z,9
2024-02-26T13:51:07.101Z,9.7
2024-02-26T13:52:08.884Z,8.6
2024-02-26T13:53:10.419Z,10.8
2024-02-26T13:54:12.501Z,8.7
2024-02-26T13:55:14.452Z,9.7
2024-02-26T13:56:16.278Z,11
2024-02-26T13:57:18.553Z,11.1
2024-02-26T13:58:20.700Z,10.8
2024-02-26T13:59:22.220Z,9.4
2024-02-26T14:00:24.103Z,10.5
2024-02-26T14:01:26.349Z,11.1
2024-02-26T14:02:28.452Z,10.5
2024-02-26T14:03:30.487Z,9.3
2024-02-26T14:04:32.890Z,11
2024-02-26T14:05:34.682Z,9.8
2024-02-26T14:06:37.111Z,10.1
2024-02-26T14:07:40.212Z,9.7
2024-02-26T14:08:42.667Z,8.3
2024-02-26T14:09:51.496Z,9
2024-02-26T14:10:53.552Z,9.5
2024-02-26T14:11:55.983Z,11.1
2024-02-26T14:12:57.746Z,10.2
2024-02-26T14:13:59.427Z,9.8
2024-02-26T14:15:01.397Z,10
2024-02-26T14:16:03.261Z,10.8
2024-02-26T14:17:04.874Z,10.7
2024-02-26T14:18:07.499Z,10.5